sensor_id;sensor_type;location;lat;lon;timestamp;temperature;humidity
12384;DHT22;6256;63.808;20.336;2022-12-08T00:01:29;-7.40;99.90
12384;DHT22;6256;63.808;20.336;2022-12-08T00:03:56;-7.40;99.90
12384;DHT22;6256;63.808;20.336;2022-12-08T00:06:29;-7.30;99.90
12384;DHT22;6256;63.808;20.336;2022-12-08T00:09:19;-7.30;99.90
12384;DHT22;6256;63.808;20.336;2022-12-08T00:11:59;-7.20;99.90
12384;DHT22;6256;63.808;20.336;2022-12-08T00:16:56;-7.20;99.90
12384;DHT22;6256;63.808;20.336;2022-12-08T00:19:22;-7.20;99.90
12384;DHT22;6256;63.808;20.336;2022-12-08T00:21:49;-7.20;99.90
12384;DHT22;6256;63.808;20.336;2022-12-08T00:24:15;-7.20;99.90
12384;DHT22;6256;63.808;20.336;2022-12-08T00:26:41;-7.30;99.90
12384;DHT22;6256;63.808;20.336;2022-12-08T00:29:07;-7.30;99.90
12384;DHT22;6256;63.808;20.336;2022-12-08T00:31:33;-7.30;99.90
12384;DHT22;6256;63.808;20.336;2022-12-08T00:33:59;-7.30;99.90
12384;DHT22;6256;63.808;20.336;2022-12-08T00:36:25;-7.30;99.90
12384;DHT22;6256;63.808;20.336;2022-12-08T00:38:50;-7.30;99.90
12384;DHT22;6256;63.808;20.336;2022-12-08T00:41:21;-7.30;99.90
12384;DHT22;6256;63.808;20.336;2022-12-08T00:44:08;-7.30;99.90
12384;DHT22;6256;63.808;20.336;2022-12-08T00:46:34;-7.40;99.90
12384;DHT22;6256;63.808;20.336;2022-12-08T00:49:01;-7.40;99.90
12384;DHT22;6256;63.808;20.336;2022-12-08T00:51:26;-7.50;99.90
12384;DHT22;6256;63.808;20.336;2022-12-08T00:53:52;-7.50;99.90
12384;DHT22;6256;63.808;20.336;2022-12-08T00:56:18;-7.50;99.90
12384;DHT22;6256;63.808;20.336;2022-12-08T00:58:43;-7.50;99.90
12384;DHT22;6256;63.808;20.336;2022-12-08T01:01:10;-7.60;99.90
12384;DHT22;6256;63.808;20.336;2022-12-08T01:03:36;-7.50;99.90
12384;DHT22;6256;63.808;20.336;2022-12-08T01:06:03;-7.50;99.90
12384;DHT22;6256;63.808;20.336;2022-12-08T01:08:29;-7.40;99.90
12384;DHT22;6256;63.808;20.336;2022-12-08T01:10:54;-7.30;99.90
12384;DHT22;6256;63.808;20.336;2022-12-08T01:13:20;-7.20;99.90
12384;DHT22;6256;63.808;20.336;2022-12-08T01:15:47;-7.10;99.90
12384;DHT22;6256;63.808;20.336;2022-12-08T01:18:12;-7.10;99.90
12384;DHT22;6256;63.808;20.336;2022-12-08T01:20:38;-7.00;99.90
12384;DHT22;6256;63.808;20.336;2022-12-08T01:23:03;-7.00;99.90
12384;DHT22;6256;63.808;20.336;2022-12-08T01:25:29;-6.90;99.90
12384;DHT22;6256;63.808;20.336;2022-12-08T01:27:55;-6.80;99.90
12384;DHT22;6256;63.808;20.336;2022-12-08T01:30:21;-6.80;99.90
12384;DHT22;6256;63.808;20.336;2022-12-08T01:32:46;-6.80;99.90
12384;DHT22;6256;63.808;20.336;2022-12-08T01:35:12;-6.70;99.90
12384;DHT22;6256;63.808;20.336;2022-12-08T01:37:38;-6.70;99.90
12384;DHT22;6256;63.808;20.336;2022-12-08T01:40:05;-6.60;99.90
12384;DHT22;6256;63.808;20.336;2022-12-08T01:42:31;-6.60;99.90
12384;DHT22;6256;63.808;20.336;2022-12-08T01:45:04;-6.50;99.90
12384;DHT22;6256;63.808;20.336;2022-12-08T01:47:42;-6.40;99.90
12384;DHT22;6256;63.808;20.336;2022-12-08T01:50:12;-6.30;99.90
12384;DHT22;6256;63.808;20.336;2022-12-08T01:52:44;-6.30;99.90
12384;DHT22;6256;63.808;20.336;2022-12-08T01:55:23;-6.30;99.90
12384;DHT22;6256;63.808;20.336;2022-12-08T01:57:54;-6.30;99.90
12384;DHT22;6256;63.808;20.336;2022-12-08T02:00:21;-6.20;99.90
12384;DHT22;6256;63.808;20.336;2022-12-08T02:02:57;-6.20;99.90
12384;DHT22;6256;63.808;20.336;2022-12-08T02:05:28;-6.20;99.90
12384;DHT22;6256;63.808;20.336;2022-12-08T02:07:55;-6.10;99.90
12384;DHT22;6256;63.808;20.336;2022-12-08T02:10:23;-6.10;99.90
12384;DHT22;6256;63.808;20.336;2022-12-08T02:12:50;-6.00;99.90
12384;DHT22;6256;63.808;20.336;2022-12-08T02:15:19;-6.00;99.90
12384;DHT22;6256;63.808;20.336;2022-12-08T02:20:52;-6.00;99.90
12384;DHT22;6256;63.808;20.336;2022-12-08T02:34:30;-6.10;99.90
12384;DHT22;6256;63.808;20.336;2022-12-08T02:37:11;-6.00;99.90
12384;DHT22;6256;63.808;20.336;2022-12-08T02:42:51;-6.00;99.90
12384;DHT22;6256;63.808;20.336;2022-12-08T02:45:30;-5.90;99.90
12384;DHT22;6256;63.808;20.336;2022-12-08T02:47:58;-6.00;99.90
12384;DHT22;6256;63.808;20.336;2022-12-08T02:50:26;-6.00;99.90
12384;DHT22;6256;63.808;20.336;2022-12-08T02:52:51;-6.10;99.90
12384;DHT22;6256;63.808;20.336;2022-12-08T03:01:03;-6.00;99.90
12384;DHT22;6256;63.808;20.336;2022-12-08T03:06:28;-5.90;99.90
12384;DHT22;6256;63.808;20.336;2022-12-08T03:09:13;-5.90;99.90
12384;DHT22;6256;63.808;20.336;2022-12-08T03:14:32;-5.90;99.90
12384;DHT22;6256;63.808;20.336;2022-12-08T03:16:59;-6.00;99.90
12384;DHT22;6256;63.808;20.336;2022-12-08T03:19:31;-6.00;99.90
12384;DHT22;6256;63.808;20.336;2022-12-08T03:21:59;-6.00;99.90
12384;DHT22;6256;63.808;20.336;2022-12-08T03:24:47;-6.00;99.90
12384;DHT22;6256;63.808;20.336;2022-12-08T03:27:25;-6.00;99.90
12384;DHT22;6256;63.808;20.336;2022-12-08T03:29:53;-6.00;99.90
12384;DHT22;6256;63.808;20.336;2022-12-08T03:35:13;-6.00;99.90
12384;DHT22;6256;63.808;20.336;2022-12-08T03:37:39;-6.00;99.90
12384;DHT22;6256;63.808;20.336;2022-12-08T03:40:10;-6.00;99.90
12384;DHT22;6256;63.808;20.336;2022-12-08T03:42:36;-6.00;99.90
12384;DHT22;6256;63.808;20.336;2022-12-08T03:45:03;-5.90;99.90
12384;DHT22;6256;63.808;20.336;2022-12-08T03:47:29;-5.90;99.90
12384;DHT22;6256;63.808;20.336;2022-12-08T03:49:54;-5.90;99.90
12384;DHT22;6256;63.808;20.336;2022-12-08T03:52:20;-5.90;99.90
12384;DHT22;6256;63.808;20.336;2022-12-08T03:54:46;-5.90;99.90
12384;DHT22;6256;63.808;20.336;2022-12-08T03:57:11;-5.80;99.90
12384;DHT22;6256;63.808;20.336;2022-12-08T03:59:37;-5.80;99.90
12384;DHT22;6256;63.808;20.336;2022-12-08T04:02:03;-5.80;99.90
12384;DHT22;6256;63.808;20.336;2022-12-08T04:04:28;-5.70;99.90
12384;DHT22;6256;63.808;20.336;2022-12-08T04:06:54;-5.60;99.90
12384;DHT22;6256;63.808;20.336;2022-12-08T04:09:19;-5.50;99.90
12384;DHT22;6256;63.808;20.336;2022-12-08T04:11:45;-5.50;99.90
12384;DHT22;6256;63.808;20.336;2022-12-08T04:14:11;-5.40;99.90
12384;DHT22;6256;63.808;20.336;2022-12-08T04:16:37;-5.30;99.90
12384;DHT22;6256;63.808;20.336;2022-12-08T04:19:02;-5.30;99.90
12384;DHT22;6256;63.808;20.336;2022-12-08T04:21:28;-5.30;99.90
12384;DHT22;6256;63.808;20.336;2022-12-08T04:23:54;-5.20;99.90
12384;DHT22;6256;63.808;20.336;2022-12-08T04:26:20;-5.20;99.90
12384;DHT22;6256;63.808;20.336;2022-12-08T04:28:46;-5.20;99.90
12384;DHT22;6256;63.808;20.336;2022-12-08T04:31:11;-5.20;99.90
12384;DHT22;6256;63.808;20.336;2022-12-08T04:33:37;-5.10;99.90
12384;DHT22;6256;63.808;20.336;2022-12-08T04:36:04;-5.20;99.90
12384;DHT22;6256;63.808;20.336;2022-12-08T04:38:30;-5.10;99.90
12384;DHT22;6256;63.808;20.336;2022-12-08T04:40:56;-5.10;99.90
12384;DHT22;6256;63.808;20.336;2022-12-08T04:43:22;-5.10;99.90
12384;DHT22;6256;63.808;20.336;2022-12-08T04:45:47;-5.00;99.90
12384;DHT22;6256;63.808;20.336;2022-12-08T04:48:13;-5.00;99.90
12384;DHT22;6256;63.808;20.336;2022-12-08T04:50:40;-5.00;99.90
12384;DHT22;6256;63.808;20.336;2022-12-08T04:53:07;-5.00;99.90
12384;DHT22;6256;63.808;20.336;2022-12-08T04:55:33;-4.90;99.90
12384;DHT22;6256;63.808;20.336;2022-12-08T04:57:59;-4.90;99.90
12384;DHT22;6256;63.808;20.336;2022-12-08T05:00:24;-4.90;99.90
12384;DHT22;6256;63.808;20.336;2022-12-08T05:02:50;-4.90;99.90
12384;DHT22;6256;63.808;20.336;2022-12-08T05:05:16;-4.80;99.90
12384;DHT22;6256;63.808;20.336;2022-12-08T05:07:41;-4.80;99.90
12384;DHT22;6256;63.808;20.336;2022-12-08T05:10:07;-4.80;99.90
12384;DHT22;6256;63.808;20.336;2022-12-08T05:12:33;-4.70;99.90
12384;DHT22;6256;63.808;20.336;2022-12-08T05:14:59;-4.70;99.90
12384;DHT22;6256;63.808;20.336;2022-12-08T05:17:24;-4.70;99.90
12384;DHT22;6256;63.808;20.336;2022-12-08T05:19:50;-4.60;99.90
12384;DHT22;6256;63.808;20.336;2022-12-08T05:22:16;-4.60;99.90
12384;DHT22;6256;63.808;20.336;2022-12-08T05:24:41;-4.60;99.90
12384;DHT22;6256;63.808;20.336;2022-12-08T05:27:08;-4.60;99.90
12384;DHT22;6256;63.808;20.336;2022-12-08T05:29:34;-4.50;99.90
12384;DHT22;6256;63.808;20.336;2022-12-08T05:32:00;-4.60;99.90
12384;DHT22;6256;63.808;20.336;2022-12-08T05:34:25;-4.50;99.90
12384;DHT22;6256;63.808;20.336;2022-12-08T05:36:51;-4.50;99.90
12384;DHT22;6256;63.808;20.336;2022-12-08T05:39:17;-4.40;99.90
12384;DHT22;6256;63.808;20.336;2022-12-08T05:41:43;-4.50;99.90
12384;DHT22;6256;63.808;20.336;2022-12-08T05:44:08;-4.40;99.90
12384;DHT22;6256;63.808;20.336;2022-12-08T05:46:34;-4.40;99.90
12384;DHT22;6256;63.808;20.336;2022-12-08T05:49:01;-4.40;99.90
12384;DHT22;6256;63.808;20.336;2022-12-08T05:51:27;-4.40;99.90
12384;DHT22;6256;63.808;20.336;2022-12-08T05:53:54;-4.30;99.90
12384;DHT22;6256;63.808;20.336;2022-12-08T05:56:20;-4.30;99.90
12384;DHT22;6256;63.808;20.336;2022-12-08T05:58:46;-4.30;99.90
12384;DHT22;6256;63.808;20.336;2022-12-08T06:01:23;-4.30;99.90
12384;DHT22;6256;63.808;20.336;2022-12-08T06:03:50;-4.20;99.90
12384;DHT22;6256;63.808;20.336;2022-12-08T06:06:16;-4.20;99.90
12384;DHT22;6256;63.808;20.336;2022-12-08T06:08:42;-4.10;99.90
12384;DHT22;6256;63.808;20.336;2022-12-08T06:11:07;-4.10;99.90
12384;DHT22;6256;63.808;20.336;2022-12-08T06:13:33;-4.10;99.90
12384;DHT22;6256;63.808;20.336;2022-12-08T06:16:04;-4.10;99.90
12384;DHT22;6256;63.808;20.336;2022-12-08T06:18:30;-4.10;99.90
12384;DHT22;6256;63.808;20.336;2022-12-08T06:21:07;-4.00;99.90
12384;DHT22;6256;63.808;20.336;2022-12-08T06:23:33;-4.00;99.90
12384;DHT22;6256;63.808;20.336;2022-12-08T06:26:04;-4.00;99.90
12384;DHT22;6256;63.808;20.336;2022-12-08T06:28:30;-3.90;99.90
12384;DHT22;6256;63.808;20.336;2022-12-08T06:30:57;-3.90;99.90
12384;DHT22;6256;63.808;20.336;2022-12-08T06:33:23;-3.90;99.90
12384;DHT22;6256;63.808;20.336;2022-12-08T06:35:49;-3.90;99.90
12384;DHT22;6256;63.808;20.336;2022-12-08T06:38:15;-3.80;99.90
12384;DHT22;6256;63.808;20.336;2022-12-08T06:40:41;-3.80;99.90
12384;DHT22;6256;63.808;20.336;2022-12-08T06:43:06;-3.80;99.90
12384;DHT22;6256;63.808;20.336;2022-12-08T06:45:32;-3.80;99.90
12384;DHT22;6256;63.808;20.336;2022-12-08T06:48:00;-3.70;99.90
12384;DHT22;6256;63.808;20.336;2022-12-08T06:50:26;-3.70;99.90
12384;DHT22;6256;63.808;20.336;2022-12-08T06:52:52;-3.70;99.90
12384;DHT22;6256;63.808;20.336;2022-12-08T06:55:18;-3.70;99.90
12384;DHT22;6256;63.808;20.336;2022-12-08T06:57:43;-3.70;99.90
12384;DHT22;6256;63.808;20.336;2022-12-08T07:00:09;-3.70;99.90
12384;DHT22;6256;63.808;20.336;2022-12-08T07:02:35;-3.60;99.90
12384;DHT22;6256;63.808;20.336;2022-12-08T07:05:01;-3.60;99.90
12384;DHT22;6256;63.808;20.336;2022-12-08T07:07:27;-3.60;99.90
12384;DHT22;6256;63.808;20.336;2022-12-08T07:09:52;-3.60;99.90
12384;DHT22;6256;63.808;20.336;2022-12-08T07:12:18;-3.60;99.90
12384;DHT22;6256;63.808;20.336;2022-12-08T07:14:44;-3.60;99.90
12384;DHT22;6256;63.808;20.336;2022-12-08T07:17:10;-3.60;99.90
12384;DHT22;6256;63.808;20.336;2022-12-08T07:19:35;-3.60;99.90
12384;DHT22;6256;63.808;20.336;2022-12-08T07:22:01;-3.50;99.90
12384;DHT22;6256;63.808;20.336;2022-12-08T07:24:26;-3.50;99.90
12384;DHT22;6256;63.808;20.336;2022-12-08T07:26:52;-3.50;99.90
12384;DHT22;6256;63.808;20.336;2022-12-08T07:29:18;-3.50;99.90
12384;DHT22;6256;63.808;20.336;2022-12-08T07:31:43;-3.50;99.90
12384;DHT22;6256;63.808;20.336;2022-12-08T07:34:11;-3.50;99.90
12384;DHT22;6256;63.808;20.336;2022-12-08T07:36:37;-3.50;99.90
12384;DHT22;6256;63.808;20.336;2022-12-08T07:39:03;-3.50;99.90
12384;DHT22;6256;63.808;20.336;2022-12-08T07:41:28;-3.50;99.90
12384;DHT22;6256;63.808;20.336;2022-12-08T07:43:55;-3.50;99.90
12384;DHT22;6256;63.808;20.336;2022-12-08T07:46:22;-3.50;99.90
12384;DHT22;6256;63.808;20.336;2022-12-08T07:48:49;-3.50;99.90
12384;DHT22;6256;63.808;20.336;2022-12-08T07:51:15;-3.40;99.90
12384;DHT22;6256;63.808;20.336;2022-12-08T07:53:43;-3.40;99.90
12384;DHT22;6256;63.808;20.336;2022-12-08T07:56:10;-3.40;99.90
12384;DHT22;6256;63.808;20.336;2022-12-08T07:58:36;-3.40;99.90
12384;DHT22;6256;63.808;20.336;2022-12-08T08:01:03;-3.40;99.90
12384;DHT22;6256;63.808;20.336;2022-12-08T08:03:29;-3.40;99.90
12384;DHT22;6256;63.808;20.336;2022-12-08T08:05:54;-3.40;99.90
12384;DHT22;6256;63.808;20.336;2022-12-08T08:08:26;-3.40;99.90
12384;DHT22;6256;63.808;20.336;2022-12-08T08:10:52;-3.40;99.90
12384;DHT22;6256;63.808;20.336;2022-12-08T08:13:17;-3.40;99.90
12384;DHT22;6256;63.808;20.336;2022-12-08T08:15:43;-3.40;99.90
12384;DHT22;6256;63.808;20.336;2022-12-08T08:18:09;-3.40;99.90
12384;DHT22;6256;63.808;20.336;2022-12-08T08:20:34;-3.40;99.90
12384;DHT22;6256;63.808;20.336;2022-12-08T08:23:00;-3.40;99.90
12384;DHT22;6256;63.808;20.336;2022-12-08T08:25:26;-3.40;99.90
12384;DHT22;6256;63.808;20.336;2022-12-08T08:27:53;-3.30;99.90
12384;DHT22;6256;63.808;20.336;2022-12-08T08:30:19;-3.30;99.90
12384;DHT22;6256;63.808;20.336;2022-12-08T08:32:44;-3.30;99.90
12384;DHT22;6256;63.808;20.336;2022-12-08T08:35:11;-3.30;99.90
12384;DHT22;6256;63.808;20.336;2022-12-08T08:37:38;-3.30;99.90
12384;DHT22;6256;63.808;20.336;2022-12-08T08:40:04;-3.30;99.90
12384;DHT22;6256;63.808;20.336;2022-12-08T08:42:30;-3.20;99.90
12384;DHT22;6256;63.808;20.336;2022-12-08T08:44:55;-3.20;99.90
12384;DHT22;6256;63.808;20.336;2022-12-08T08:47:21;-3.20;99.90
12384;DHT22;6256;63.808;20.336;2022-12-08T08:49:47;-3.20;99.90
12384;DHT22;6256;63.808;20.336;2022-12-08T08:52:13;-3.20;99.90
12384;DHT22;6256;63.808;20.336;2022-12-08T08:54:38;-3.20;99.90
12384;DHT22;6256;63.808;20.336;2022-12-08T08:57:04;-3.20;99.90
12384;DHT22;6256;63.808;20.336;2022-12-08T08:59:30;-3.20;99.90
12384;DHT22;6256;63.808;20.336;2022-12-08T09:01:55;-3.20;99.90
12384;DHT22;6256;63.808;20.336;2022-12-08T09:04:22;-3.20;99.90
12384;DHT22;6256;63.808;20.336;2022-12-08T09:06:48;-3.20;99.90
12384;DHT22;6256;63.808;20.336;2022-12-08T09:09:14;-3.20;99.90
12384;DHT22;6256;63.808;20.336;2022-12-08T09:11:43;-3.20;99.90
12384;DHT22;6256;63.808;20.336;2022-12-08T09:14:13;-3.20;99.90
12384;DHT22;6256;63.808;20.336;2022-12-08T09:16:40;-3.20;99.90
12384;DHT22;6256;63.808;20.336;2022-12-08T09:19:06;-3.10;99.90
12384;DHT22;6256;63.808;20.336;2022-12-08T09:21:32;-3.10;99.90
12384;DHT22;6256;63.808;20.336;2022-12-08T09:23:58;-3.10;99.90
12384;DHT22;6256;63.808;20.336;2022-12-08T09:26:25;-3.10;99.90
12384;DHT22;6256;63.808;20.336;2022-12-08T09:28:52;-3.10;99.90
12384;DHT22;6256;63.808;20.336;2022-12-08T09:31:19;-3.10;99.90
12384;DHT22;6256;63.808;20.336;2022-12-08T09:33:46;-3.20;99.90
12384;DHT22;6256;63.808;20.336;2022-12-08T09:36:12;-3.10;99.90
12384;DHT22;6256;63.808;20.336;2022-12-08T09:38:39;-3.10;99.90
12384;DHT22;6256;63.808;20.336;2022-12-08T09:41:13;-3.10;99.90
12384;DHT22;6256;63.808;20.336;2022-12-08T09:44:10;-3.10;99.90
12384;DHT22;6256;63.808;20.336;2022-12-08T09:46:41;-3.10;99.90
12384;DHT22;6256;63.808;20.336;2022-12-08T09:49:14;-3.10;99.90
12384;DHT22;6256;63.808;20.336;2022-12-08T09:51:43;-3.10;99.90
12384;DHT22;6256;63.808;20.336;2022-12-08T09:54:24;-3.10;99.90
12384;DHT22;6256;63.808;20.336;2022-12-08T09:56:54;-3.10;99.90
12384;DHT22;6256;63.808;20.336;2022-12-08T09:59:31;-3.10;99.90
12384;DHT22;6256;63.808;20.336;2022-12-08T10:02:00;-3.10;99.90
12384;DHT22;6256;63.808;20.336;2022-12-08T10:04:38;-3.10;99.90
12384;DHT22;6256;63.808;20.336;2022-12-08T10:07:29;-3.10;99.90
12384;DHT22;6256;63.808;20.336;2022-12-08T10:09:58;-3.20;99.90
12384;DHT22;6256;63.808;20.336;2022-12-08T10:15:42;-3.10;99.90
12384;DHT22;6256;63.808;20.336;2022-12-08T10:18:16;-3.10;99.90
12384;DHT22;6256;63.808;20.336;2022-12-08T10:20:44;-3.20;99.90
12384;DHT22;6256;63.808;20.336;2022-12-08T10:25:47;-3.20;99.90
12384;DHT22;6256;63.808;20.336;2022-12-08T10:28:13;-3.30;99.90
12384;DHT22;6256;63.808;20.336;2022-12-08T10:30:39;-3.30;99.90
12384;DHT22;6256;63.808;20.336;2022-12-08T10:33:11;-3.30;99.90
12384;DHT22;6256;63.808;20.336;2022-12-08T10:35:47;-3.30;99.90
12384;DHT22;6256;63.808;20.336;2022-12-08T10:40:47;-3.30;99.90
12384;DHT22;6256;63.808;20.336;2022-12-08T10:43:18;-3.30;99.90
12384;DHT22;6256;63.808;20.336;2022-12-08T10:45:47;-3.30;99.90
12384;DHT22;6256;63.808;20.336;2022-12-08T10:53:30;-3.30;99.90
12384;DHT22;6256;63.808;20.336;2022-12-08T11:03:56;-3.30;99.90
12384;DHT22;6256;63.808;20.336;2022-12-08T11:06:34;-3.30;99.90
12384;DHT22;6256;63.808;20.336;2022-12-08T11:11:41;-3.30;99.90
12384;DHT22;6256;63.808;20.336;2022-12-08T11:16:52;-3.20;99.90
12384;DHT22;6256;63.808;20.336;2022-12-08T11:19:20;-3.30;99.90
12384;DHT22;6256;63.808;20.336;2022-12-08T11:21:46;-3.30;99.90
12384;DHT22;6256;63.808;20.336;2022-12-08T11:24:25;-3.30;99.90
12384;DHT22;6256;63.808;20.336;2022-12-08T11:26:57;-3.30;99.90
12384;DHT22;6256;63.808;20.336;2022-12-08T11:29:24;-3.30;99.90
12384;DHT22;6256;63.808;20.336;2022-12-08T11:31:59;-3.20;99.90
12384;DHT22;6256;63.808;20.336;2022-12-08T11:34:37;-3.20;99.90
12384;DHT22;6256;63.808;20.336;2022-12-08T11:37:10;-3.20;99.90
12384;DHT22;6256;63.808;20.336;2022-12-08T11:39:42;-3.20;99.90
12384;DHT22;6256;63.808;20.336;2022-12-08T11:42:11;-3.20;99.90
12384;DHT22;6256;63.808;20.336;2022-12-08T11:44:58;-3.30;99.90
12384;DHT22;6256;63.808;20.336;2022-12-08T11:47:29;-3.20;99.90
12384;DHT22;6256;63.808;20.336;2022-12-08T11:50:21;-3.20;99.90
12384;DHT22;6256;63.808;20.336;2022-12-08T11:52:50;-3.20;99.90
12384;DHT22;6256;63.808;20.336;2022-12-08T11:58:18;-3.10;99.90
12384;DHT22;6256;63.808;20.336;2022-12-08T12:00:42;-3.10;99.90
12384;DHT22;6256;63.808;20.336;2022-12-08T12:03:22;-3.10;99.90
12384;DHT22;6256;63.808;20.336;2022-12-08T12:06:20;-3.10;99.90
12384;DHT22;6256;63.808;20.336;2022-12-08T12:09:18;-3.10;99.90
12384;DHT22;6256;63.808;20.336;2022-12-08T12:15:15;-3.00;99.90
12384;DHT22;6256;63.808;20.336;2022-12-08T12:20:28;-3.00;99.90
12384;DHT22;6256;63.808;20.336;2022-12-08T12:23:05;-2.90;99.90
12384;DHT22;6256;63.808;20.336;2022-12-08T12:25:34;-2.90;99.90
12384;DHT22;6256;63.808;20.336;2022-12-08T12:28:06;-2.90;99.90
12384;DHT22;6256;63.808;20.336;2022-12-08T12:31:01;-2.90;99.90
12384;DHT22;6256;63.808;20.336;2022-12-08T12:33:30;-2.80;99.90
12384;DHT22;6256;63.808;20.336;2022-12-08T12:35:57;-2.80;99.90
12384;DHT22;6256;63.808;20.336;2022-12-08T12:38:46;-2.80;99.90
12384;DHT22;6256;63.808;20.336;2022-12-08T12:47:02;-2.80;99.90
12384;DHT22;6256;63.808;20.336;2022-12-08T12:57:35;-2.80;99.90
12384;DHT22;6256;63.808;20.336;2022-12-08T13:02:59;-2.70;99.90
12384;DHT22;6256;63.808;20.336;2022-12-08T13:05:30;-2.70;99.90
12384;DHT22;6256;63.808;20.336;2022-12-08T13:08:04;-2.70;99.90
12384;DHT22;6256;63.808;20.336;2022-12-08T13:10:33;-2.70;99.90
12384;DHT22;6256;63.808;20.336;2022-12-08T13:13:20;-2.70;99.90
12384;DHT22;6256;63.808;20.336;2022-12-08T13:15:51;-2.70;99.90
12384;DHT22;6256;63.808;20.336;2022-12-08T13:21:32;-2.70;99.90
12384;DHT22;6256;63.808;20.336;2022-12-08T13:29:33;-2.80;99.90
12384;DHT22;6256;63.808;20.336;2022-12-08T13:32:00;-2.80;99.90
12384;DHT22;6256;63.808;20.336;2022-12-08T13:45:12;-2.90;99.90
12384;DHT22;6256;63.808;20.336;2022-12-08T13:47:52;-2.90;99.90
12384;DHT22;6256;63.808;20.336;2022-12-08T13:50:35;-3.00;99.90
12384;DHT22;6256;63.808;20.336;2022-12-08T13:53:12;-3.00;99.90
12384;DHT22;6256;63.808;20.336;2022-12-08T13:56:04;-3.00;99.90
12384;DHT22;6256;63.808;20.336;2022-12-08T13:58:33;-3.00;99.90
12384;DHT22;6256;63.808;20.336;2022-12-08T14:03:52;-3.00;99.90
12384;DHT22;6256;63.808;20.336;2022-12-08T14:06:27;-3.10;99.90
12384;DHT22;6256;63.808;20.336;2022-12-08T14:08:56;-3.10;99.90
12384;DHT22;6256;63.808;20.336;2022-12-08T14:14:12;-3.00;99.90
12384;DHT22;6256;63.808;20.336;2022-12-08T14:16:41;-3.00;99.90
12384;DHT22;6256;63.808;20.336;2022-12-08T14:19:19;-3.00;99.90
12384;DHT22;6256;63.808;20.336;2022-12-08T14:22:00;-3.10;99.90
12384;DHT22;6256;63.808;20.336;2022-12-08T14:24:28;-3.10;99.90
12384;DHT22;6256;63.808;20.336;2022-12-08T14:26:58;-3.10;99.90
12384;DHT22;6256;63.808;20.336;2022-12-08T14:29:43;-3.20;99.90
12384;DHT22;6256;63.808;20.336;2022-12-08T14:32:25;-3.20;99.90
12384;DHT22;6256;63.808;20.336;2022-12-08T14:37:45;-3.30;99.90
12384;DHT22;6256;63.808;20.336;2022-12-08T14:42:47;-3.30;99.90
12384;DHT22;6256;63.808;20.336;2022-12-08T14:45:15;-3.30;99.90
12384;DHT22;6256;63.808;20.336;2022-12-08T14:47:41;-3.30;99.90
12384;DHT22;6256;63.808;20.336;2022-12-08T14:50:35;-3.30;99.90
12384;DHT22;6256;63.808;20.336;2022-12-08T14:53:01;-3.30;99.90
12384;DHT22;6256;63.808;20.336;2022-12-08T14:55:34;-3.30;99.90
12384;DHT22;6256;63.808;20.336;2022-12-08T14:58:00;-3.30;99.90
12384;DHT22;6256;63.808;20.336;2022-12-08T15:00:27;-3.30;99.90
12384;DHT22;6256;63.808;20.336;2022-12-08T15:02:54;-3.30;99.90
12384;DHT22;6256;63.808;20.336;2022-12-08T15:05:20;-3.30;99.90
12384;DHT22;6256;63.808;20.336;2022-12-08T15:07:55;-3.30;99.90
12384;DHT22;6256;63.808;20.336;2022-12-08T15:10:26;-3.40;99.90
12384;DHT22;6256;63.808;20.336;2022-12-08T15:15:30;-3.40;99.90
12384;DHT22;6256;63.808;20.336;2022-12-08T15:18:10;-3.40;99.90
12384;DHT22;6256;63.808;20.336;2022-12-08T15:20:45;-3.40;99.90
12384;DHT22;6256;63.808;20.336;2022-12-08T15:23:23;-3.40;99.90
12384;DHT22;6256;63.808;20.336;2022-12-08T15:25:50;-3.40;99.90
12384;DHT22;6256;63.808;20.336;2022-12-08T15:28:21;-3.40;99.90
12384;DHT22;6256;63.808;20.336;2022-12-08T15:30:47;-3.40;99.90
12384;DHT22;6256;63.808;20.336;2022-12-08T15:33:13;-3.40;99.90
12384;DHT22;6256;63.808;20.336;2022-12-08T15:35:39;-3.40;99.90
12384;DHT22;6256;63.808;20.336;2022-12-08T15:38:05;-3.40;99.90
12384;DHT22;6256;63.808;20.336;2022-12-08T15:40:31;-3.50;99.90
12384;DHT22;6256;63.808;20.336;2022-12-08T15:42:57;-3.40;99.90
12384;DHT22;6256;63.808;20.336;2022-12-08T15:45:29;-3.40;99.90
12384;DHT22;6256;63.808;20.336;2022-12-08T15:47:55;-3.40;99.90
12384;DHT22;6256;63.808;20.336;2022-12-08T15:50:22;-3.40;99.90
12384;DHT22;6256;63.808;20.336;2022-12-08T15:52:48;-3.40;99.90
12384;DHT22;6256;63.808;20.336;2022-12-08T15:55:17;-3.40;99.90
12384;DHT22;6256;63.808;20.336;2022-12-08T15:57:46;-3.50;99.90
12384;DHT22;6256;63.808;20.336;2022-12-08T16:02:50;-3.50;99.90
12384;DHT22;6256;63.808;20.336;2022-12-08T16:05:16;-3.50;99.90
12384;DHT22;6256;63.808;20.336;2022-12-08T16:07:42;-3.40;99.90
12384;DHT22;6256;63.808;20.336;2022-12-08T16:10:20;-3.50;99.90
12384;DHT22;6256;63.808;20.336;2022-12-08T16:12:46;-3.50;99.90
12384;DHT22;6256;63.808;20.336;2022-12-08T16:15:34;-3.50;99.90
12384;DHT22;6256;63.808;20.336;2022-12-08T16:18:00;-3.40;99.90
12384;DHT22;6256;63.808;20.336;2022-12-08T16:20:26;-3.40;99.90
12384;DHT22;6256;63.808;20.336;2022-12-08T16:22:51;-3.40;99.90
12384;DHT22;6256;63.808;20.336;2022-12-08T16:25:18;-3.50;99.90
12384;DHT22;6256;63.808;20.336;2022-12-08T16:27:44;-3.50;99.90
12384;DHT22;6256;63.808;20.336;2022-12-08T16:30:14;-3.40;99.90
12384;DHT22;6256;63.808;20.336;2022-12-08T16:32:40;-3.40;99.90
12384;DHT22;6256;63.808;20.336;2022-12-08T16:35:06;-3.40;99.90
12384;DHT22;6256;63.808;20.336;2022-12-08T16:37:32;-3.40;99.90
12384;DHT22;6256;63.808;20.336;2022-12-08T16:39:58;-3.30;99.90
12384;DHT22;6256;63.808;20.336;2022-12-08T16:42:28;-3.30;99.90
12384;DHT22;6256;63.808;20.336;2022-12-08T16:47:44;-3.30;99.90
12384;DHT22;6256;63.808;20.336;2022-12-08T16:50:17;-3.30;99.90
12384;DHT22;6256;63.808;20.336;2022-12-08T16:52:44;-3.30;99.90
12384;DHT22;6256;63.808;20.336;2022-12-08T16:55:13;-3.30;99.90
12384;DHT22;6256;63.808;20.336;2022-12-08T16:57:40;-3.20;99.90
12384;DHT22;6256;63.808;20.336;2022-12-08T17:00:08;-3.20;99.90
12384;DHT22;6256;63.808;20.336;2022-12-08T17:02:34;-3.20;99.90
12384;DHT22;6256;63.808;20.336;2022-12-08T17:05:00;-3.10;99.90
12384;DHT22;6256;63.808;20.336;2022-12-08T17:07:26;-3.10;99.90
12384;DHT22;6256;63.808;20.336;2022-12-08T17:09:51;-3.10;99.90
12384;DHT22;6256;63.808;20.336;2022-12-08T17:12:17;-3.10;99.90
12384;DHT22;6256;63.808;20.336;2022-12-08T17:14:43;-3.10;99.90
12384;DHT22;6256;63.808;20.336;2022-12-08T17:17:09;-3.00;99.90
12384;DHT22;6256;63.808;20.336;2022-12-08T17:19:35;-3.00;99.90
12384;DHT22;6256;63.808;20.336;2022-12-08T17:22:00;-3.00;99.90
12384;DHT22;6256;63.808;20.336;2022-12-08T17:24:27;-3.00;99.90
12384;DHT22;6256;63.808;20.336;2022-12-08T17:26:55;-3.00;99.90
12384;DHT22;6256;63.808;20.336;2022-12-08T17:29:21;-3.00;99.90
12384;DHT22;6256;63.808;20.336;2022-12-08T17:31:46;-3.00;99.90
12384;DHT22;6256;63.808;20.336;2022-12-08T17:34:12;-3.00;99.90
12384;DHT22;6256;63.808;20.336;2022-12-08T17:36:38;-3.00;99.90
12384;DHT22;6256;63.808;20.336;2022-12-08T17:39:04;-3.00;99.90
12384;DHT22;6256;63.808;20.336;2022-12-08T17:41:30;-3.00;99.90
12384;DHT22;6256;63.808;20.336;2022-12-08T17:43:56;-3.00;99.90
12384;DHT22;6256;63.808;20.336;2022-12-08T17:46:22;-3.00;99.90